Stevinson, California
Current Conditions -  °F | °C
As of 5:55 AM on Monday 20 Oct 2014 (Local Time) from KMER Reporting Station
Clear Clear  
Wind Chill: 14°   Ceiling: Unl
Heat Index: 14°   Visibility: 10mi
Dew Point: 14°   Wind: 7mph
Humidity: 100%   Direction: 60°ENE
Pressure: 29.89"   Gusts: NA
Location:  37.33°N, 120.85°W
Report Text: KMER 201255Z AUTO 06006KT 10SM CLR 14/14 A2989 RMK AO1
Loading
Personal Weather Stations






























Interactive Weather Map
Tropical Storm Tracking
New forecast layout! Learn more

10-Day Weather Forecast

Advertisements
Track Severe Weather on mobile